Time;durP1;ratioP1;P1;durP2;ratioP2;P2;SDS_P1;SDS_P2;PMS_P1;PMS_P2;Temp;Humidity;BMP_temperature;BMP_pressure;BME280_temperature;BME280_humidity;BME280_pressure;Samples;Min_cycle;Max_cycle;Signal;HPM_P1;HPM_P2
2022/06/12 00:00:00;;;;;;;6.63;3.50;;;;;;;15.29;66.54;102205.53;5055409;28;20043;-85
2022/06/12 00:02:26;;;;;;;9.43;3.10;;;;;;;15.28;67.18;102209.09;5056375;28;20032;-85
2022/06/12 00:04:51;;;;;;;8.43;3.10;;;;;;;15.44;65.72;102212.06;5054726;28;20031;-85
2022/06/12 00:07:17;;;;;;;5.97;2.95;;;;;;;15.57;65.63;102208.00;5060190;28;20020;-85
2022/06/12 00:09:42;;;;;;;5.50;3.40;;;;;;;15.62;66.07;102197.16;5060378;28;20024;-85
2022/06/12 00:12:08;;;;;;;9.50;3.63;;;;;;;15.41;65.61;102203.31;5060399;28;20020;-85
2022/06/12 00:14:34;;;;;;;5.22;3.25;;;;;;;15.20;66.28;102195.22;5063590;28;20031;-85
2022/06/12 00:16:59;;;;;;;4.97;2.67;;;;;;;15.16;66.95;102206.06;5061199;28;20040;-85
2022/06/12 00:19:25;;;;;;;6.38;3.20;;;;;;;14.94;67.67;102196.19;5061247;28;20440;-85
2022/06/12 00:21:50;;;;;;;7.05;3.47;;;;;;;14.67;68.27;102198.06;5060298;28;20534;-85
2022/06/12 00:24:19;;;;;;;4.97;2.80;;;;;;;14.62;68.56;102193.81;5061882;28;20032;-85
2022/06/12 00:26:49;;;;;;;6.70;3.70;;;;;;;14.79;68.02;102204.75;5058208;28;20159;-85
2022/06/12 00:29:16;;;;;;;15.25;3.50;;;;;;;14.96;67.19;102204.13;5061446;28;20450;-85
2022/06/12 00:31:46;;;;;;;6.53;3.33;;;;;;;14.87;67.47;102200.00;5059049;28;20686;-85
2022/06/12 00:34:13;;;;;;;5.72;3.50;;;;;;;14.60;68.40;102209.84;5059245;28;21451;-85
2022/06/12 00:36:39;;;;;;;8.23;3.70;;;;;;;14.49;68.78;102198.69;5057165;28;20028;-85
2022/06/12 00:39:08;;;;;;;6.78;3.42;;;;;;;14.57;68.16;102201.97;5058457;28;20824;-85
2022/06/12 00:41:33;;;;;;;11.07;3.72;;;;;;;14.74;67.34;102202.25;5066657;28;20428;-85
2022/06/12 00:43:59;;;;;;;5.88;3.28;;;;;;;14.87;67.37;102197.31;5061529;28;20056;-85
2022/06/12 00:46:39;;;;;;;10.05;3.80;;;;;;;14.99;66.21;102191.56;5057639;28;20028;-85
2022/06/12 00:49:10;;;;;;;5.88;3.38;;;;;;;14.94;66.60;102198.00;5059854;28;20025;-85
2022/06/12 00:51:36;;;;;;;6.35;3.40;;;;;;;14.69;67.23;102196.22;5059211;28;20367;-85
2022/06/12 00:54:01;;;;;;;5.80;3.20;;;;;;;14.57;67.60;102201.97;5057336;28;20013;-85
2022/06/12 00:56:32;;;;;;;7.15;3.50;;;;;;;14.61;67.60;102200.06;5057025;28;20032;-85
2022/06/12 00:59:03;;;;;;;5.85;3.50;;;;;;;14.59;67.56;102202.78;5051457;28;20043;-85
2022/06/12 01:01:38;;;;;;;5.97;2.80;;;;;;;14.65;67.44;102197.25;5056880;28;20032;-85
2022/06/12 01:06:52;;;;;;;7.95;3.35;;;;;;;14.43;67.78;102196.22;5063296;28;20502;-85
2022/06/12 01:09:22;;;;;;;5.72;3.30;;;;;;;14.47;67.80;102200.53;5059316;28;20270;-85
2022/06/12 01:11:49;;;;;;;7.65;3.63;;;;;;;14.21;68.09;102194.28;5057686;28;20048;-85
2022/06/12 01:14:18;;;;;;;5.65;3.38;;;;;;;13.89;69.40;102197.13;5059747;28;20119;-85
2022/06/12 01:16:45;;;;;;;4.78;2.95;;;;;;;13.84;69.52;102199.94;5056778;28;20173;-85
2022/06/12 01:19:30;;;;;;;6.55;3.40;;;;;;;13.71;69.46;102195.97;5055596;28;20024;-85
2022/06/12 01:22:15;;;;;;;5.90;3.00;;;;;;;13.74;69.26;102195.84;5053294;28;20024;-85
2022/06/12 01:25:09;;;;;;;6.30;3.00;;;;;;;13.95;68.75;102196.97;5072332;28;20020;-85
2022/06/12 01:27:37;;;;;;;7.20;3.00;;;;;;;14.07;68.58;102196.53;5058992;28;20043;-85
2022/06/12 01:30:17;;;;;;;6.28;3.00;;;;;;;14.16;67.87;102200.69;5060587;28;20111;-85
2022/06/12 01:32:58;;;;;;;4.88;2.92;;;;;;;13.94;68.56;102195.19;5057530;28;20102;-85
2022/06/12 01:35:46;;;;;;;6.63;3.10;;;;;;;13.76;69.69;102209.97;5057544;28;20031;-85
2022/06/12 01:38:18;;;;;;;6.05;2.58;;;;;;;13.75;69.90;102203.75;5057111;28;20361;-85
2022/06/12 01:40:49;;;;;;;5.10;3.05;;;;;;;13.61;69.61;102194.47;5073515;28;20024;-85
2022/06/12 01:43:24;;;;;;;4.97;2.80;;;;;;;13.34;70.35;102196.22;5059696;28;20153;-85
2022/06/12 01:46:01;;;;;;;4.88;2.92;;;;;;;13.21;71.61;102190.34;5054498;28;20028;-85
2022/06/12 01:48:39;;;;;;;3.50;2.70;;;;;;;13.25;71.02;102192.03;5056798;28;20044;-85
2022/06/12 01:51:17;;;;;;;5.70;2.97;;;;;;;13.43;69.20;102185.28;5071958;28;20032;-85
2022/06/12 01:53:58;;;;;;;5.85;2.65;;;;;;;13.63;69.11;102188.22;5068548;28;20431;-85
2022/06/12 01:56:32;;;;;;;6.80;2.92;;;;;;;13.70;68.81;102188.88;5066455;28;20028;-85
2022/06/12 01:59:22;;;;;;;7.25;3.15;;;;;;;13.60;69.07;102180.31;5056206;28;20112;-85
2022/06/12 02:02:25;;;;;;;6.93;2.97;;;;;;;13.48;70.17;102178.06;5057914;28;20032;-85
2022/06/12 02:05:17;;;;;;;5.55;2.72;;;;;;;13.45;69.70;102186.13;5019021;28;20088;-85
2022/06/12 02:07:51;;;;;;;6.80;3.10;;;;;;;13.29;70.39;102183.06;5056347;28;20044;-85
2022/06/12 02:10:35;;;;;;;4.93;2.85;;;;;;;13.24;70.34;102185.88;5055621;28;20036;-85
2022/06/12 02:13:30;;;;;;;4.10;2.33;;;;;;;13.20;70.81;102183.31;5056237;28;20039;-85
2022/06/12 02:16:03;;;;;;;3.30;2.40;;;;;;;13.19;71.37;102185.06;5058298;28;20594;-85
2022/06/12 02:18:46;;;;;;;6.63;2.63;;;;;;;13.22;70.35;102192.13;5055621;28;20040;-85
2022/06/12 02:21:45;;;;;;;5.32;2.70;;;;;;;13.16;69.92;102185.19;5059786;28;20123;-85
2022/06/12 02:24:30;;;;;;;5.07;2.30;;;;;;;13.23;69.89;102200.03;5050695;28;20064;-85
2022/06/12 02:27:03;;;;;;;6.03;2.65;;;;;;;13.30;70.06;102194.56;5056589;28;20039;-85
2022/06/12 02:29:58;;;;;;;5.97;2.85;;;;;;;13.35;70.26;102197.94;5057832;28;20118;-85
2022/06/12 02:32:34;;;;;;;11.70;3.67;;;;;;;13.42;69.92;102195.03;5036282;28;20071;-85
2022/06/12 02:35:12;;;;;;;2.90;2.10;;;;;;;13.34;69.76;102198.88;5071769;28;20021;-85
2022/06/12 02:37:43;;;;;;;4.93;2.35;;;;;;;13.21;70.29;102185.91;5054203;28;20033;-84
2022/06/12 02:40:17;;;;;;;6.95;2.45;;;;;;;13.06;70.58;102185.50;5057085;28;20363;-85
2022/06/12 02:42:46;;;;;;;5.43;3.20;;;;;;;12.88;71.60;102184.25;5056130;28;20415;-85
2022/06/12 02:45:18;;;;;;;8.82;3.20;;;;;;;12.64;72.01;102191.09;5056504;28;20093;-84
2022/06/12 02:47:45;;;;;;;5.93;3.15;;;;;;;12.53;72.21;102175.44;5060095;28;20048;-84
2022/06/12 02:50:13;;;;;;;10.35;3.50;;;;;;;12.47;72.54;102170.31;5055846;28;20063;-84
2022/06/12 02:53:03;;;;;;;8.60;3.15;;;;;;;12.54;71.95;102171.00;5055257;28;20427;-84
2022/06/12 02:55:44;;;;;;;7.88;2.70;;;;;;;12.41;72.73;102167.84;5056453;28;20032;-84
2022/06/12 02:58:29;;;;;;;6.32;2.60;;;;;;;12.44;72.43;102171.25;5055661;28;20027;-85
2022/06/12 03:01:15;;;;;;;5.63;2.67;;;;;;;12.45;72.21;102167.72;5045345;28;20032;-85
2022/06/12 03:03:54;;;;;;;5.07;2.65;;;;;;;12.51;71.65;102170.19;5057710;28;20539;-84
2022/06/12 03:06:20;;;;;;;6.30;2.88;;;;;;;12.46;73.30;102166.81;5056373;28;20082;-85
2022/06/12 03:08:49;;;;;;;9.65;3.20;;;;;;;12.62;72.40;102169.03;5054930;28;20736;-84
2022/06/12 03:11:14;;;;;;;7.85;2.67;;;;;;;12.69;72.53;102166.19;5044653;28;20475;-84
2022/06/12 03:13:40;;;;;;;5.75;3.25;;;;;;;12.65;73.11;102168.97;5054653;28;20119;-84
2022/06/12 03:16:08;;;;;;;7.82;3.15;;;;;;;12.74;71.93;102169.56;5054906;28;20036;-84
2022/06/12 03:18:38;;;;;;;6.20;3.05;;;;;;;12.82;71.91;102171.13;5056814;28;20028;-84
2022/06/12 03:21:47;;;;;;;9.95;3.10;;;;;;;12.92;70.70;102172.63;5056086;28;20043;-84
2022/06/12 03:24:37;;;;;;;5.15;2.45;;;;;;;12.96;70.81;102174.25;5042285;28;20044;-84
2022/06/12 03:27:31;;;;;;;8.07;3.67;;;;;;;13.00;71.08;102175.91;5056771;28;20086;-84
2022/06/12 03:30:22;;;;;;;7.32;3.70;;;;;;;12.91;71.95;102176.16;5056214;28;20071;-84
2022/06/12 03:32:56;;;;;;;8.73;3.30;;;;;;;13.00;72.76;102176.78;5057668;28;20039;-84
2022/06/12 03:36:00;;;;;;;5.55;3.30;;;;;;;13.02;71.63;102174.97;5057462;28;20527;-84
2022/06/12 03:38:38;;;;;;;8.27;3.47;;;;;;;12.96;72.93;102179.56;5046985;28;20394;-84
2022/06/12 03:41:26;;;;;;;6.30;3.47;;;;;;;12.92;71.84;102180.59;5050452;28;20047;-84
2022/06/12 03:44:09;;;;;;;12.90;3.72;;;;;;;12.86;72.99;102184.25;5071202;28;20063;-84
2022/06/12 03:46:47;;;;;;;9.48;3.30;;;;;;;12.91;73.11;102181.47;5055889;28;20057;-84
2022/06/12 03:49:24;;;;;;;9.30;3.50;;;;;;;12.99;72.89;102184.78;5060775;28;20078;-84
2022/06/12 03:51:59;;;;;;;9.82;3.80;;;;;;;13.05;71.71;102183.75;5058317;28;20089;-84
2022/06/12 03:54:49;;;;;;;8.43;3.72;;;;;;;13.14;71.73;102179.03;5060379;28;20028;-84
2022/06/12 03:57:53;;;;;;;6.10;3.80;;;;;;;13.19;71.05;102190.38;5058920;28;20078;-84
2022/06/12 04:00:30;;;;;;;7.55;3.33;;;;;;;13.22;71.68;102173.53;5048646;28;20029;-84
2022/06/12 04:03:12;;;;;;;7.93;3.60;;;;;;;13.31;71.39;102185.69;5058490;28;20032;-84
2022/06/12 04:05:41;;;;;;;11.05;4.18;;;;;;;13.33;71.81;102182.03;5062005;28;20392;-84
2022/06/12 04:08:12;;;;;;;8.68;4.05;;;;;;;13.41;71.65;102188.00;5058724;28;20405;-84
2022/06/12 04:10:39;;;;;;;9.32;4.47;;;;;;;13.43;71.55;102186.19;5059616;28;20044;-84
2022/06/12 04:13:10;;;;;;;10.40;4.10;;;;;;;13.44;71.74;102192.38;5057753;28;20043;-84
2022/06/12 04:15:47;;;;;;;10.90;4.20;;;;;;;13.56;71.33;102185.78;5060531;28;20032;-84
2022/06/12 04:18:14;;;;;;;4.68;3.65;;;;;;;13.58;72.70;102190.16;5058631;28;20065;-84
2022/06/12 04:20:59;;;;;;;11.98;4.65;;;;;;;13.65;70.95;102180.19;5059782;28;20514;-85
2022/06/12 04:23:47;;;;;;;14.50;5.10;;;;;;;13.58;72.58;102182.19;5060331;28;20028;-84
2022/06/12 04:26:27;;;;;;;11.13;4.13;;;;;;;13.63;71.48;102192.66;5056194;28;20499;-84
2022/06/12 04:29:00;;;;;;;10.07;4.57;;;;;;;13.65;71.43;102180.19;5057401;28;21126;-84
2022/06/12 04:31:28;;;;;;;13.13;5.43;;;;;;;13.72;71.82;102192.38;5057406;28;20058;-85
2022/06/12 04:34:31;;;;;;;13.63;5.22;;;;;;;13.78;70.30;102198.34;5057921;28;20099;-84
2022/06/12 04:37:00;;;;;;;15.43;5.30;;;;;;;13.74;70.99;102195.84;5057095;28;20036;-84
2022/06/12 04:39:31;;;;;;;9.13;4.93;;;;;;;13.73;71.77;102186.13;5060569;28;20167;-84
2022/06/12 04:41:58;;;;;;;14.68;5.38;;;;;;;13.74;71.32;102194.03;5059302;28;20036;-84
2022/06/12 04:44:24;;;;;;;11.15;4.95;;;;;;;13.85;71.69;102198.16;5059522;28;20111;-84
2022/06/12 04:46:52;;;;;;;10.98;4.57;;;;;;;13.98;70.36;102204.81;5057435;28;20038;-84
2022/06/12 04:49:22;;;;;;;11.13;4.53;;;;;;;13.99;70.22;102201.25;5059905;28;20086;-84
2022/06/12 04:51:48;;;;;;;7.97;3.88;;;;;;;14.04;71.37;102207.28;5057530;28;20391;-85
2022/06/12 04:54:15;;;;;;;14.20;5.40;;;;;;;13.98;70.73;102200.38;5055673;28;20541;-84
2022/06/12 04:56:41;;;;;;;11.65;5.05;;;;;;;14.06;72.04;102207.22;5058430;28;20032;-84
2022/06/12 04:59:07;;;;;;;9.32;4.85;;;;;;;14.07;70.75;102198.31;5057140;28;20060;-84
2022/06/12 05:01:32;;;;;;;11.00;5.28;;;;;;;14.08;70.07;102200.06;5056829;28;20028;-84
2022/06/12 05:03:59;;;;;;;9.95;4.97;;;;;;;14.07;70.44;102193.88;5059087;28;20024;-84
2022/06/12 05:06:25;;;;;;;9.13;4.85;;;;;;;14.09;70.31;102199.16;5060024;28;20025;-84
2022/06/12 05:08:52;;;;;;;13.93;5.05;;;;;;;14.13;70.10;102193.69;5055751;28;20554;-84
2022/06/12 05:11:18;;;;;;;11.38;5.45;;;;;;;14.15;70.52;102191.84;5058796;28;20032;-84
2022/06/12 05:13:44;;;;;;;10.43;5.03;;;;;;;14.15;70.43;102189.19;5059589;28;20032;-85
2022/06/12 05:16:24;;;;;;;14.63;5.30;;;;;;;14.23;69.77;102191.59;5057482;28;20036;-84
2022/06/12 05:18:49;;;;;;;8.95;4.88;;;;;;;14.33;70.91;102193.00;5053819;28;20036;-85
2022/06/12 05:21:15;;;;;;;11.23;5.15;;;;;;;14.41;70.43;102190.06;5058133;28;20036;-84
2022/06/12 05:23:40;;;;;;;10.25;4.82;;;;;;;14.49;69.72;102190.72;5055741;28;20028;-85
2022/06/12 05:26:06;;;;;;;10.98;4.93;;;;;;;14.58;69.96;102185.06;5057375;28;20029;-84
2022/06/12 05:28:31;;;;;;;14.50;5.25;;;;;;;14.66;70.05;102192.78;5058896;28;20032;-84
2022/06/12 05:30:56;;;;;;;12.82;4.85;;;;;;;14.75;68.78;102190.66;5044505;28;20126;-84
2022/06/12 05:33:22;;;;;;;9.43;4.43;;;;;;;14.85;67.99;102195.66;5057894;28;20029;-85
2022/06/12 05:35:47;;;;;;;11.90;4.13;;;;;;;14.93;68.83;102190.94;5061525;28;20056;-84
2022/06/12 05:38:12;;;;;;;13.43;5.80;;;;;;;15.01;67.67;102192.38;5058270;28;20021;-84
2022/06/12 05:40:39;;;;;;;14.75;4.95;;;;;;;15.05;67.43;102194.00;5057818;28;20107;-85
2022/06/12 05:43:05;;;;;;;11.73;4.70;;;;;;;15.15;68.89;102202.50;5056639;28;20503;-84
2022/06/12 05:45:32;;;;;;;11.52;4.65;;;;;;;15.19;67.69;102192.59;5058135;28;20380;-85
2022/06/12 05:48:03;;;;;;;14.25;5.10;;;;;;;15.28;67.33;102194.91;5056878;28;20044;-84
2022/06/12 05:50:32;;;;;;;10.45;4.50;;;;;;;15.34;67.03;102201.81;5055373;28;20067;-85
2022/06/12 05:52:58;;;;;;;16.00;4.80;;;;;;;15.42;66.91;102197.91;5074433;28;20086;-85
2022/06/12 05:55:24;;;;;;;15.02;4.80;;;;;;;15.42;67.09;102191.72;5056793;28;20028;-85
2022/06/12 05:57:49;;;;;;;13.65;4.78;;;;;;;15.52;67.24;102206.44;5052768;28;20025;-85
2022/06/12 06:00:23;;;;;;;14.85;5.00;;;;;;;15.61;68.04;102215.88;5055202;28;20033;-85
2022/06/12 06:02:48;;;;;;;16.67;5.18;;;;;;;15.69;67.80;102216.47;5057743;28;20105;-85
2022/06/12 06:05:14;;;;;;;10.65;4.78;;;;;;;15.72;67.39;102213.69;5055865;28;20559;-84
2022/06/12 06:07:40;;;;;;;18.00;5.20;;;;;;;15.77;67.64;102212.56;5058252;28;20032;-85
2022/06/12 06:10:09;;;;;;;12.82;4.95;;;;;;;15.87;68.25;102213.06;5055506;28;20047;-85
2022/06/12 06:12:35;;;;;;;16.83;5.63;;;;;;;16.03;67.85;102208.84;5053867;28;20039;-85
2022/06/12 06:15:00;;;;;;;18.10;5.80;;;;;;;16.18;67.88;102207.34;5058290;28;20068;-85
2022/06/12 06:17:26;;;;;;;13.80;5.78;;;;;;;16.41;66.01;102209.03;5058337;28;20041;-84
2022/06/12 06:19:51;;;;;;;19.10;5.57;;;;;;;16.59;65.59;102216.25;5056908;28;20078;-84
2022/06/12 06:22:18;;;;;;;14.00;4.90;;;;;;;16.69;65.57;102216.72;5049087;28;20043;-85
2022/06/12 06:24:44;;;;;;;16.02;4.72;;;;;;;16.80;65.95;102214.50;5043708;28;20078;-85
2022/06/12 06:27:10;;;;;;;14.13;5.38;;;;;;;16.89;65.45;102215.88;5057405;28;20378;-85
2022/06/12 06:29:36;;;;;;;16.38;5.20;;;;;;;17.01;65.52;102215.31;5057251;28;20063;-85
2022/06/12 06:32:03;;;;;;;21.05;5.57;;;;;;;17.08;66.22;102210.56;5054228;28;20174;-85
2022/06/12 06:34:28;;;;;;;18.52;5.65;;;;;;;17.12;65.41;102214.84;5057133;28;20111;-85
2022/06/12 06:36:54;;;;;;;15.75;5.60;;;;;;;17.31;65.12;102223.75;5073364;28;20153;-85
2022/06/12 06:39:19;;;;;;;17.75;5.80;;;;;;;17.46;65.13;102224.84;5060759;28;20027;-84
2022/06/12 06:41:45;;;;;;;19.92;6.25;;;;;;;17.38;65.75;102224.31;5056327;28;20480;-85
2022/06/12 06:46:54;;;;;;;18.55;5.90;;;;;;;17.54;65.48;102229.84;5057406;28;20047;-85
2022/06/12 06:49:21;;;;;;;19.80;5.68;;;;;;;17.88;65.31;102223.75;5056350;28;20028;-84
2022/06/12 06:51:46;;;;;;;23.13;6.50;;;;;;;18.35;64.96;102232.09;5059037;28;20037;-85
2022/06/12 06:54:11;;;;;;;20.98;5.68;;;;;;;18.34;63.87;102227.69;5058137;28;20058;-85
2022/06/12 06:56:37;;;;;;;19.23;5.40;;;;;;;18.43;63.89;102226.38;5056791;28;20020;-85
2022/06/12 06:59:03;;;;;;;20.77;5.20;;;;;;;18.63;63.17;102233.38;5056235;28;20060;-85
2022/06/12 07:01:28;;;;;;;17.25;5.28;;;;;;;18.81;60.93;102228.91;5053268;28;20424;-85
2022/06/12 07:03:53;;;;;;;16.02;5.70;;;;;;;18.83;61.10;102229.66;5055801;28;20032;-85
2022/06/12 07:06:19;;;;;;;19.95;5.70;;;;;;;18.86;62.04;102230.38;5057975;28;20505;-85
2022/06/12 07:08:45;;;;;;;18.10;5.88;;;;;;;18.79;60.96;102225.41;5057471;28;20727;-85
2022/06/12 07:11:10;;;;;;;17.90;5.35;;;;;;;18.80;61.63;102235.22;5054654;28;20119;-85
2022/06/12 07:13:36;;;;;;;16.60;5.85;;;;;;;18.89;61.63;102232.06;5058435;28;20075;-85
2022/06/12 07:16:01;;;;;;;16.75;5.80;;;;;;;19.02;60.92;102229.56;5055913;28;20031;-85
2022/06/12 07:18:26;;;;;;;23.10;6.70;;;;;;;19.15;61.25;102236.00;5056718;28;20112;-85
2022/06/12 07:20:55;;;;;;;14.95;5.53;;;;;;;19.10;60.17;102235.38;5057489;28;20107;-85
2022/06/12 07:23:23;;;;;;;17.80;6.07;;;;;;;19.21;59.98;102237.47;5058026;28;20095;-85
2022/06/12 07:26:04;;;;;;;18.63;5.57;;;;;;;19.37;59.61;102233.88;5062403;28;20074;-85
2022/06/12 07:28:30;;;;;;;19.77;6.10;;;;;;;19.60;58.75;102232.66;5061108;28;20507;-85
2022/06/12 07:30:56;;;;;;;13.10;5.65;;;;;;;19.93;58.11;102230.81;5059808;28;20028;-85
2022/06/12 07:33:22;;;;;;;19.17;5.82;;;;;;;20.22;57.96;102238.03;5059498;28;20036;-85
2022/06/12 07:35:48;;;;;;;15.73;5.68;;;;;;;20.24;57.25;102233.47;5061941;28;20473;-85
2022/06/12 07:38:17;;;;;;;16.95;5.10;;;;;;;20.32;56.48;102241.91;5061057;28;20066;-85
2022/06/12 07:40:48;;;;;;;14.65;4.97;;;;;;;20.29;56.60;102234.06;5062089;28;20730;-86
2022/06/12 07:43:14;;;;;;;20.65;6.43;;;;;;;20.30;57.93;102240.28;5057231;28;20107;-85
2022/06/12 07:45:41;;;;;;;17.55;5.88;;;;;;;21.00;55.47;102240.59;5060745;28;20107;-85
2022/06/12 07:48:07;;;;;;;19.08;5.82;;;;;;;21.73;52.74;102238.66;5057913;28;20448;-85
2022/06/12 07:50:33;;;;;;;15.10;5.32;;;;;;;22.12;51.25;102237.00;5062153;28;20029;-85
2022/06/12 07:52:59;;;;;;;14.20;5.05;;;;;;;21.92;52.42;102232.94;5058667;28;20047;-86
2022/06/12 07:55:25;;;;;;;17.10;5.55;;;;;;;21.49;53.27;102237.50;5060582;28;20163;-86
2022/06/12 07:57:51;;;;;;;16.15;5.35;;;;;;;21.20;52.15;102236.66;5058027;28;20020;-86
2022/06/12 08:00:18;;;;;;;13.73;4.45;;;;;;;21.24;52.41;102230.97;5057155;28;20463;-89
2022/06/12 08:02:46;;;;;;;18.30;5.43;;;;;;;21.18;52.40;102236.75;5054858;28;20782;-86
2022/06/12 08:05:13;;;;;;;12.70;4.93;;;;;;;21.23;53.11;102236.47;5059767;28;20544;-86
2022/06/12 08:07:39;;;;;;;10.85;4.93;;;;;;;21.96;51.02;102238.94;5060601;28;20138;-86
2022/06/12 08:10:05;;;;;;;16.05;4.65;;;;;;;22.23;49.38;102241.66;5059613;28;20161;-86
2022/06/12 08:12:32;;;;;;;16.52;4.47;;;;;;;22.37;48.48;102237.06;5060407;28;20405;-86
2022/06/12 08:14:58;;;;;;;16.13;4.72;;;;;;;22.63;49.14;102239.84;5067025;28;20055;-86
2022/06/12 08:17:23;;;;;;;11.25;3.92;;;;;;;22.74;48.30;102236.38;5068837;28;20944;-86
2022/06/12 08:22:32;;;;;;;13.30;5.07;;;;;;;22.33;49.01;102240.94;5066449;28;20055;-86
2022/06/12 08:24:58;;;;;;;13.27;5.20;;;;;;;22.36;49.17;102237.19;5070111;28;20044;-86
2022/06/12 08:27:23;;;;;;;11.20;4.65;;;;;;;22.71;48.74;102232.09;5067990;28;20024;-85
2022/06/12 08:29:49;;;;;;;12.77;5.03;;;;;;;22.87;48.09;102235.44;5058320;28;20021;-86
2022/06/12 08:32:19;;;;;;;13.60;4.90;;;;;;;22.59;48.30;102233.78;5057581;28;20551;-86
2022/06/12 08:34:58;;;;;;;17.90;5.05;;;;;;;22.65;49.01;102244.13;5057476;28;20111;-85
2022/06/12 08:37:30;;;;;;;18.25;5.05;;;;;;;22.64;48.66;102239.72;5057281;28;20032;-86
2022/06/12 08:39:57;;;;;;;18.40;5.15;;;;;;;23.06;46.65;102226.06;5055159;28;20028;-86
2022/06/12 08:42:36;;;;;;;12.77;4.88;;;;;;;23.03;47.65;102228.97;5056466;28;20047;-85
2022/06/12 08:45:12;;;;;;;13.52;4.63;;;;;;;23.22;48.40;102236.63;5060689;28;20040;-86
2022/06/12 08:47:54;;;;;;;12.52;5.65;;;;;;;23.07;47.99;102230.50;5059383;28;20052;-85
2022/06/12 08:50:29;;;;;;;15.43;5.13;;;;;;;23.25;47.77;102233.72;5054737;28;20048;-86
2022/06/12 08:53:04;;;;;;;15.00;5.57;;;;;;;23.43;46.98;102230.56;5072253;28;20131;-86
2022/06/12 08:55:39;;;;;;;17.00;5.53;;;;;;;23.04;48.01;102225.34;5059328;28;20052;-86
2022/06/12 08:58:15;;;;;;;16.77;5.53;;;;;;;23.11;48.02;102213.13;5060215;28;20040;-86
2022/06/12 09:00:40;;;;;;;12.35;5.07;;;;;;;23.49;47.39;102217.59;5060081;28;20036;-86
2022/06/12 09:03:11;;;;;;;11.32;4.35;;;;;;;23.45;45.12;102216.09;5056900;28;20043;-86
2022/06/12 09:05:49;;;;;;;13.20;4.75;;;;;;;23.48;46.22;102219.44;5059339;28;20047;-85
2022/06/12 09:08:30;;;;;;;11.75;4.93;;;;;;;23.79;46.97;102211.81;5061038;28;20562;-86
2022/06/12 09:11:14;;;;;;;15.80;4.87;;;;;;;23.84;46.24;102210.50;5058566;28;20029;-86
2022/06/12 09:13:55;;;;;;;12.73;4.68;;;;;;;23.96;45.81;102218.66;5057673;28;20094;-85
2022/06/12 09:16:34;;;;;;;14.23;5.30;;;;;;;24.23;45.05;102213.84;5054904;28;20037;-86
2022/06/12 09:19:57;;;;;;;9.70;4.00;;;;;;;24.70;44.39;102212.06;5062272;28;20111;-86
2022/06/12 09:22:50;;;;;;;12.57;4.20;;;;;;;25.09;43.94;102202.69;5034034;28;20192;-86
2022/06/12 09:25:26;;;;;;;15.07;4.50;;;;;;;24.74;43.22;102212.69;5015740;28;20031;-86
2022/06/12 09:28:14;;;;;;;14.18;4.50;;;;;;;24.47;42.54;102215.69;5055885;28;20123;-86
2022/06/12 09:30:59;;;;;;;8.57;4.00;;;;;;;24.29;44.21;102212.53;5070728;28;20032;-86
2022/06/12 09:33:53;;;;;;;13.20;3.45;;;;;;;24.70;42.09;102209.34;5063039;28;20487;-86
2022/06/12 09:36:21;;;;;;;10.50;3.15;;;;;;;25.13;40.03;102216.81;5065244;28;20032;-86
2022/06/12 09:38:57;;;;;;;7.85;3.75;;;;;;;25.27;40.56;102211.13;5059088;28;20028;-87
2022/06/12 09:41:37;;;;;;;11.48;4.25;;;;;;;25.53;40.33;102210.88;5056866;28;20051;-87
2022/06/12 09:44:11;;;;;;;10.80;4.85;;;;;;;25.65;39.94;102205.31;5058013;28;20044;-86
2022/06/12 09:46:59;;;;;;;14.95;4.70;;;;;;;25.71;41.45;102209.38;5061241;28;20045;-87
2022/06/12 09:49:43;;;;;;;13.93;4.35;;;;;;;26.08;40.07;102211.75;5058198;28;20040;-86
2022/06/12 09:52:37;;;;;;;11.85;4.80;;;;;;;26.19;39.69;102217.97;5059991;28;20570;-86
2022/06/12 09:55:30;;;;;;;16.30;4.38;;;;;;;25.84;40.12;102215.53;5064403;28;20141;-86
2022/06/12 09:58:06;;;;;;;10.85;4.32;;;;;;;25.74;39.95;102205.53;5057823;28;20050;-86
2022/06/12 10:00:39;;;;;;;9.10;4.28;;;;;;;25.44;40.63;102207.06;5060453;28;20036;-86
2022/06/12 10:03:07;;;;;;;9.45;3.67;;;;;;;25.32;40.02;102205.34;5062334;28;20477;-86
2022/06/12 10:05:38;;;;;;;9.95;4.15;;;;;;;25.62;38.82;102208.28;5060266;28;20025;-86
2022/06/12 10:08:13;;;;;;;12.63;4.00;;;;;;;25.69;38.83;102203.19;5061825;28;20047;-86
2022/06/12 10:10:45;;;;;;;10.15;3.50;;;;;;;25.82;38.82;102200.38;5059025;28;20035;-87
2022/06/12 10:13:17;;;;;;;9.38;3.72;;;;;;;26.13;36.71;102196.81;5052455;28;20040;-87
2022/06/12 10:15:57;;;;;;;9.50;3.92;;;;;;;26.32;38.88;102195.25;5055928;28;20055;-86
2022/06/12 10:18:30;;;;;;;14.15;3.53;;;;;;;26.52;38.49;102178.16;5063567;28;20225;-87
2022/06/12 10:21:01;;;;;;;10.40;4.03;;;;;;;26.77;37.78;102193.16;5060020;28;20020;-86
2022/06/12 10:23:26;;;;;;;10.55;3.67;;;;;;;27.10;36.35;102193.94;5055245;28;20021;-86
2022/06/12 10:25:56;;;;;;;11.75;3.97;;;;;;;27.16;36.43;102191.50;5061295;28;20047;-86
2022/06/12 10:28:34;;;;;;;9.43;3.20;;;;;;;26.85;37.09;102182.47;5054587;28;20033;-88
2022/06/12 10:31:18;;;;;;;7.75;2.95;;;;;;;26.76;38.09;102185.13;5071472;28;20151;-87
2022/06/12 10:33:58;;;;;;;9.40;3.28;;;;;;;26.52;37.07;102182.72;5056934;28;20070;-87
2022/06/12 10:36:32;;;;;;;7.78;2.95;;;;;;;26.90;35.51;102187.50;5057434;28;20044;-87
2022/06/12 10:39:20;;;;;;;8.52;3.45;;;;;;;26.72;37.89;102190.00;5062601;28;20020;-86
2022/06/12 10:41:58;;;;;;;11.07;3.35;;;;;;;26.40;36.72;102187.31;5060559;28;20467;-87
2022/06/12 10:44:32;;;;;;;9.43;3.10;;;;;;;26.68;37.34;102178.53;5057421;28;20029;-87
2022/06/12 10:47:30;;;;;;;8.25;3.80;;;;;;;26.89;36.74;102183.06;5056463;28;20063;-87
2022/06/12 10:50:20;;;;;;;8.82;3.65;;;;;;;26.29;37.23;102181.94;5059752;28;20029;-87
2022/06/12 10:53:09;;;;;;;11.77;3.58;;;;;;;26.24;36.38;102179.63;5053627;28;20350;-87
2022/06/12 10:55:59;;;;;;;11.93;3.35;;;;;;;26.27;37.31;102179.38;5053254;28;20123;-86
2022/06/12 10:58:37;;;;;;;12.13;3.58;;;;;;;26.53;38.35;102170.88;5075313;28;20436;-87
2022/06/12 11:01:18;;;;;;;10.88;3.72;;;;;;;26.81;36.53;102172.88;5064007;28;20044;-87
2022/06/12 11:04:07;;;;;;;5.82;2.92;;;;;;;26.82;37.55;102173.75;5059306;28;20033;-87
2022/06/12 11:07:03;;;;;;;12.02;3.10;;;;;;;26.90;37.06;102180.19;5057634;28;20037;-87
2022/06/12 11:09:56;;;;;;;9.02;2.70;;;;;;;26.50;36.98;102169.28;5059397;28;20021;-87
2022/06/12 11:12:45;;;;;;;8.45;2.60;;;;;;;26.39;36.48;102174.72;5058054;28;20482;-87
2022/06/12 11:15:37;;;;;;;8.27;2.85;;;;;;;26.10;37.09;102171.81;5056460;28;20093;-87
2022/06/12 11:18:14;;;;;;;6.93;2.45;;;;;;;25.68;36.24;102171.69;5047961;28;20048;-87
2022/06/12 11:20:40;;;;;;;11.32;3.08;;;;;;;25.57;36.16;102180.72;5064141;28;20032;-87
2022/06/12 11:23:15;;;;;;;9.52;2.40;;;;;;;25.62;36.84;102167.66;5060147;28;20452;-87
2022/06/12 11:25:54;;;;;;;10.88;3.30;;;;;;;25.80;37.32;102176.13;5059883;28;20024;-87
2022/06/12 11:28:36;;;;;;;7.65;2.63;;;;;;;26.44;36.69;102178.81;5058677;28;20116;-87
2022/06/12 11:31:16;;;;;;;9.05;2.95;;;;;;;26.58;36.60;102168.59;5054738;28;20052;-86
2022/06/12 11:34:04;;;;;;;11.32;3.08;;;;;;;27.05;35.52;102175.28;5073216;28;20035;-87
2022/06/12 11:36:45;;;;;;;7.82;2.85;;;;;;;27.30;34.68;102162.25;5053748;28;20032;-88
2022/06/12 11:39:20;;;;;;;11.05;3.17;;;;;;;27.36;34.57;102165.25;5055863;28;20223;-87
2022/06/12 11:42:08;;;;;;;11.13;2.78;;;;;;;27.43;33.69;102165.59;5054750;28;20032;-87
2022/06/12 11:44:59;;;;;;;8.45;2.75;;;;;;;27.01;33.81;102154.84;5055364;28;20426;-88
2022/06/12 11:47:50;;;;;;;6.45;2.50;;;;;;;27.34;35.79;102148.25;5056209;28;20281;-87
2022/06/12 11:50:31;;;;;;;11.05;2.58;;;;;;;27.57;33.34;102156.19;5063577;28;20029;-87
2022/06/12 11:53:15;;;;;;;7.05;2.28;;;;;;;27.48;34.98;102152.44;5061406;28;20040;-87
2022/06/12 11:56:10;;;;;;;10.10;2.83;;;;;;;27.55;33.47;102147.28;5060049;28;20091;-86
2022/06/12 11:59:14;;;;;;;8.43;2.80;;;;;;;27.58;33.12;102142.44;5060213;28;20043;-87
2022/06/12 12:01:46;;;;;;;4.78;2.20;;;;;;;27.20;32.75;102138.66;5057118;28;20025;-87